createdAt,value
2023-03-06T00:05:53.071Z,3.22
2023-03-06T00:21:35.283Z,3.22
2023-03-06T00:37:18.161Z,3.22
2023-03-06T00:53:00.989Z,3.22
2023-03-06T01:08:43.246Z,3.221
2023-03-06T01:24:26.177Z,3.221
2023-03-06T01:40:09.028Z,3.221
2023-03-06T01:55:51.426Z,3.223
2023-03-06T02:11:34.460Z,3.221
2023-03-06T02:27:17.056Z,3.223
2023-03-06T02:43:00.137Z,3.223
2023-03-06T02:58:42.851Z,3.223
2023-03-06T03:14:25.336Z,3.223
2023-03-06T03:30:08.411Z,3.223
2023-03-06T03:45:51.255Z,3.221
2023-03-06T04:01:33.769Z,3.221
2023-03-06T04:17:16.682Z,3.22
2023-03-06T04:32:58.918Z,3.22
2023-03-06T04:48:41.637Z,3.22
2023-03-06T05:04:24.563Z,3.213
2023-03-06T05:20:07.170Z,3.22
2023-03-06T05:35:50.247Z,3.22
2023-03-06T05:51:32.454Z,3.22
2023-03-06T06:07:15.141Z,3.22
2023-03-06T06:22:57.713Z,3.22
2023-03-06T06:38:39.934Z,3.22
2023-03-06T06:54:22.793Z,3.22
2023-03-06T07:10:05.130Z,3.221
2023-03-06T07:25:47.865Z,3.223
2023-03-06T07:57:13.258Z,3.236
2023-03-06T10:02:54.066Z,3.245
2023-03-06T10:34:19.102Z,3.254
2023-03-06T10:50:02.231Z,3.256
2023-03-06T11:05:44.280Z,3.264
2023-03-06T11:21:27.322Z,3.274
2023-03-06T11:37:10.133Z,3.297
2023-03-06T11:52:52.514Z,3.292
2023-03-06T12:08:34.736Z,3.275
2023-03-06T12:24:17.073Z,3.265
2023-03-06T12:40:00.156Z,3.259
2023-03-06T13:11:25.836Z,3.373
2023-03-06T13:27:09.021Z,3.35
2023-03-06T13:42:51.210Z,3.33
2023-03-06T13:58:33.749Z,3.306
2023-03-06T14:14:16.176Z,3.294
2023-03-06T14:29:59.015Z,3.285
2023-03-06T14:45:48.823Z,3.278
2023-03-06T15:01:31.149Z,3.27
2023-03-06T15:17:06.594Z,3.263
2023-03-06T15:32:56.517Z,3.257
2023-03-06T15:48:32.441Z,3.253
2023-03-06T16:04:29.040Z,3.247
2023-03-06T16:20:04.675Z,3.245
2023-03-06T16:35:47.381Z,3.243
2023-03-06T16:51:22.653Z,3.241
2023-03-06T17:07:05.442Z,3.236
2023-03-06T17:22:48.120Z,3.235
2023-03-06T17:38:30.462Z,3.234
2023-03-06T17:54:13.233Z,3.231
2023-03-06T18:09:55.709Z,3.229
2023-03-06T18:25:38.051Z,3.228
2023-03-06T18:41:20.499Z,3.228
2023-03-06T18:57:02.972Z,3.225
2023-03-06T19:12:45.288Z,3.225
2023-03-06T19:28:27.531Z,3.224
2023-03-06T19:29:15.015Z,3.213
2023-03-06T19:44:57.316Z,3.221
2023-03-06T20:00:39.694Z,3.221
2023-03-06T20:16:22.337Z,3.221
2023-03-06T20:32:04.625Z,3.22
2023-03-06T20:47:47.481Z,3.22
2023-03-06T21:03:30.149Z,3.213
2023-03-06T21:19:12.881Z,3.213
2023-03-06T21:34:55.227Z,3.213
2023-03-06T21:50:37.920Z,3.213
2023-03-06T22:06:20.409Z,3.213
2023-03-06T22:22:03.173Z,3.213
2023-03-06T22:37:45.702Z,3.212
2023-03-06T22:53:28.294Z,3.213
2023-03-06T23:09:10.611Z,3.212
2023-03-06T23:24:53.413Z,3.212
2023-03-06T23:56:19.556Z,3.218
